Time;durP1;ratioP1;P1;durP2;ratioP2;P2;SDS_P1;SDS_P2;PMS_P1;PMS_P2;Temp;Humidity;BMP_temperature;BMP_pressure;BME280_temperature;BME280_humidity;BME280_pressure;Samples;Min_cycle;Max_cycle;Signal;HPM_P1;HPM_P2
2022/12/17 13:09:57;;;;;;;44.97;19.08;;;;;;;2.11;54.81;100131.72;7632790;32;39819;-82
2022/12/17 13:14:17;;;;;;;48.05;22.08;;;;;;;1.37;55.27;100149.63;7632246;32;39990;-81
2022/12/17 13:18:40;;;;;;;47.83;21.60;;;;;;;1.16;56.33;100167.53;7631160;32;38115;-82
2022/12/17 13:23:16;;;;;;;54.95;21.73;;;;;;;0.13;58.54;100186.09;7632308;32;37799;-82
2022/12/17 13:27:40;;;;;;;56.97;23.38;;;;;;;0.72;57.59;100198.28;7632382;32;39082;-83
2022/12/17 13:32:17;;;;;;;45.22;20.45;;;;;;;0.75;57.96;100182.59;7632423;32;40060;-83
2022/12/17 13:37:06;;;;;;;56.85;23.42;;;;;;;1.21;56.80;100189.25;7632355;32;38965;-83
2022/12/17 13:41:29;;;;;;;46.63;21.85;;;;;;;0.48;58.68;100204.94;7616031;32;37324;-84
2022/12/17 13:45:45;;;;;;;56.85;23.90;;;;;;;0.19;58.88;100220.19;7631934;32;39824;-85
2022/12/17 13:50:19;;;;;;;50.80;24.77;;;;;;;0.86;57.30;100204.53;7633420;32;40823;-83
2022/12/17 13:54:52;;;;;;;50.38;22.17;;;;;;;0.20;57.96;100229.88;7633397;32;38184;-84
2022/12/17 13:59:21;;;;;;;54.22;23.67;;;;;;;0.74;58.17;100237.31;7633328;32;37254;-84
2022/12/17 14:03:37;;;;;;;51.83;22.95;;;;;;;0.72;58.25;100243.91;7633288;32;40081;-85
2022/12/17 14:08:17;;;;;;;56.05;23.00;;;;;;;0.44;58.12;100251.97;7632294;32;40364;-82
2022/12/17 14:12:34;;;;;;;54.88;24.23;;;;;;;0.61;58.19;100260.56;7631345;32;38439;-81
2022/12/17 14:16:50;;;;;;;49.00;21.92;;;;;;;0.27;59.35;100262.94;7630486;32;37508;-82
2022/12/17 14:21:08;;;;;;;45.38;22.83;;;;;;;0.78;58.02;100255.69;7632858;32;40583;-82
2022/12/17 14:25:34;;;;;;;47.13;21.98;;;;;;;0.78;57.85;100272.66;7631578;32;40123;-82
2022/12/17 14:29:51;;;;;;;54.63;24.25;;;;;;;0.87;56.98;100270.66;7632491;32;37661;-82
2022/12/17 14:34:12;;;;;;;55.12;23.65;;;;;;;0.71;57.43;100272.59;7629148;32;37748;-82
2022/12/17 14:38:28;;;;;;;52.58;23.02;;;;;;;0.75;56.77;100276.53;7629709;32;39364;-81
2022/12/17 14:42:58;;;;;;;50.63;22.23;;;;;;;1.07;56.26;100276.12;7628016;32;39536;-82
2022/12/17 14:47:33;;;;;;;50.67;24.45;;;;;;;0.55;57.19;100273.72;7629343;32;38558;-80
2022/12/17 14:51:49;;;;;;;55.17;24.12;;;;;;;-0.08;58.69;100305.72;7632079;32;37307;-80
2022/12/17 14:56:21;;;;;;;42.92;22.48;;;;;;;0.35;57.49;100321.00;7632336;32;40075;-82
2022/12/17 15:00:53;;;;;;;54.58;22.33;;;;;;;-0.07;58.79;100323.47;7630528;32;39947;-81
2022/12/17 15:05:15;;;;;;;47.95;23.10;;;;;;;0.09;57.71;100338.47;7642150;32;38774;-81
2022/12/17 15:09:38;;;;;;;56.63;24.45;;;;;;;0.44;57.35;100354.72;7631684;32;37618;-83
2022/12/17 15:13:54;;;;;;;57.25;27.35;;;;;;;0.17;57.88;100362.50;7631367;32;39392;-81
2022/12/17 15:18:11;;;;;;;54.78;26.08;;;;;;;-0.52;60.57;100368.22;7631242;32;40012;-81
2022/12/17 15:22:27;;;;;;;54.08;25.27;;;;;;;0.04;58.73;100377.62;7630579;32;38073;-80
2022/12/17 15:26:44;;;;;;;60.35;25.05;;;;;;;-0.01;61.87;100392.41;7630239;32;37166;-81
2022/12/17 15:31:02;;;;;;;63.85;23.50;;;;;;;0.23;58.76;100384.22;7630964;32;39851;-80
2022/12/17 15:35:18;;;;;;;63.97;27.83;;;;;;;0.17;58.61;100385.78;7631082;32;40041;-81
2022/12/17 15:39:34;;;;;;;61.90;22.98;;;;;;;-0.19;59.47;100389.28;7631019;32;39222;-80
2022/12/17 15:43:51;;;;;;;56.92;24.30;;;;;;;0.19;58.60;100399.87;7630711;32;36426;-83
2022/12/17 15:48:11;;;;;;;60.45;26.12;;;;;;;0.34;57.70;100416.72;7630101;32;38179;-81
2022/12/17 15:52:29;;;;;;;59.67;21.35;;;;;;;-0.06;58.37;100418.94;7631227;32;39658;-84
2022/12/17 15:56:52;;;;;;;56.83;24.02;;;;;;;-0.26;59.70;100426.72;7630484;32;38094;-84
2022/12/17 16:01:08;;;;;;;56.50;23.85;;;;;;;0.11;58.42;100442.88;7630344;32;36950;-83
2022/12/17 16:05:25;;;;;;;45.00;21.33;;;;;;;0.19;57.98;100445.44;7630138;32;39318;-84
2022/12/17 16:09:42;;;;;;;46.33;22.25;;;;;;;0.43;57.46;100438.91;7628913;32;39980;-82
2022/12/17 16:13:59;;;;;;;52.35;21.35;;;;;;;0.45;57.51;100454.81;7631296;32;37797;-83
2022/12/17 16:18:16;;;;;;;53.87;22.08;;;;;;;0.22;57.81;100461.16;7631158;32;37270;-85
2022/12/17 16:22:33;;;;;;;52.38;20.35;;;;;;;0.34;57.55;100464.19;7624383;32;38670;-83
2022/12/17 16:26:50;;;;;;;54.55;22.90;;;;;;;0.69;56.57;100467.87;7605223;32;40784;-84
2022/12/17 16:31:09;;;;;;;59.70;24.67;;;;;;;0.85;55.79;100476.72;7630908;32;38058;-84
2022/12/17 16:35:29;;;;;;;51.75;21.35;;;;;;;0.56;57.16;100486.53;7631092;32;37311;-84
2022/12/17 16:39:50;;;;;;;50.22;21.17;;;;;;;0.58;57.30;100502.44;7629874;32;40271;-84
2022/12/17 16:44:15;;;;;;;49.47;22.33;;;;;;;0.67;57.00;100512.88;7630243;32;40775;-85
2022/12/17 16:48:38;;;;;;;51.28;20.25;;;;;;;0.63;57.11;100514.25;7626417;32;38868;-86
2022/12/17 16:52:55;;;;;;;51.78;23.38;;;;;;;0.83;56.17;100527.91;7630382;32;35565;-85
2022/12/17 16:57:12;;;;;;;58.75;23.02;;;;;;;0.53;57.34;100532.50;7630196;32;39294;-83
2022/12/17 17:01:28;;;;;;;50.05;22.13;;;;;;;0.80;56.82;100533.66;7628113;32;40494;-82
2022/12/17 17:05:45;;;;;;;54.25;23.12;;;;;;;0.59;57.07;100542.50;7629187;32;37816;-82
2022/12/17 17:10:01;;;;;;;46.03;21.23;;;;;;;0.54;57.48;100544.91;7629253;32;37389;-82
2022/12/17 17:14:20;;;;;;;52.08;23.08;;;;;;;0.70;57.09;100554.59;7628688;32;40166;-81
2022/12/17 17:18:37;;;;;;;51.88;21.75;;;;;;;0.99;56.29;100556.38;7626249;32;39545;-84
2022/12/17 17:22:55;;;;;;;40.12;19.58;;;;;;;0.43;58.28;100564.16;7623592;32;38513;-82
2022/12/17 17:27:12;;;;;;;44.90;21.75;;;;;;;0.67;57.41;100560.34;7630153;32;37215;-80
2022/12/17 17:31:29;;;;;;;48.22;20.10;;;;;;;0.63;57.84;100570.62;7628446;32;39384;-84
2022/12/17 17:36:09;;;;;;;39.92;19.67;;;;;;;0.58;58.03;100582.94;7627313;32;40241;-80
2022/12/17 17:40:25;;;;;;;40.38;19.12;;;;;;;0.67;57.75;100585.34;7629464;32;37684;-81
2022/12/17 17:44:41;;;;;;;52.97;20.33;;;;;;;0.73;57.62;100591.81;7629143;32;37741;-80
2022/12/17 17:48:59;;;;;;;43.20;21.15;;;;;;;0.01;60.02;100608.53;7629398;32;39446;-80
2022/12/17 17:53:15;;;;;;;48.22;20.27;;;;;;;-0.27;60.31;100618.00;7633251;32;40853;-81
2022/12/17 17:57:32;;;;;;;51.40;21.80;;;;;;;-0.28;60.49;100613.63;7633134;32;37999;-82
2022/12/17 18:01:49;;;;;;;47.47;19.33;;;;;;;0.35;58.71;100624.94;7633246;32;38061;-81
2022/12/17 18:06:07;;;;;;;36.80;18.98;;;;;;;0.59;57.87;100628.38;7633246;32;40191;-81
2022/12/17 18:10:23;;;;;;;45.47;19.60;;;;;;;0.17;59.02;100641.41;7632776;32;40748;-82
2022/12/17 18:14:40;;;;;;;39.70;19.45;;;;;;;0.27;58.45;100645.66;7632558;32;37968;-80
2022/12/17 18:19:21;;;;;;;50.90;23.07;;;;;;;0.48;57.97;100651.13;7633011;32;37273;-82
2022/12/17 18:23:38;;;;;;;51.65;23.77;;;;;;;0.58;57.29;100656.22;7633080;32;39265;-82
2022/12/17 18:27:55;;;;;;;46.37;20.50;;;;;;;0.52;57.83;100656.97;7632718;32;39686;-82
2022/12/17 18:32:11;;;;;;;41.50;20.80;;;;;;;0.36;58.32;100666.84;7632174;32;38518;-82
2022/12/17 18:36:32;;;;;;;44.17;21.30;;;;;;;0.25;58.57;100669.16;7632637;32;38311;-82
2022/12/17 18:40:51;;;;;;;52.92;23.65;;;;;;;0.12;58.96;100685.84;7632727;32;39658;-82
2022/12/17 18:45:08;;;;;;;40.20;20.33;;;;;;;0.32;58.50;100686.16;7632587;32;39937;-81
2022/12/17 18:49:25;;;;;;;40.83;18.65;;;;;;;0.35;58.27;100686.62;7632539;32;38681;-82
2022/12/17 18:53:42;;;;;;;40.05;17.40;;;;;;;0.41;58.11;100703.84;7632657;32;37581;-79
2022/12/17 18:58:00;;;;;;;54.67;24.15;;;;;;;0.36;57.62;100708.91;7632558;32;39322;-81
2022/12/17 19:02:16;;;;;;;39.30;16.87;;;;;;;0.17;58.43;100718.31;7631080;32;40765;-81
2022/12/17 19:06:34;;;;;;;36.55;17.62;;;;;;;0.01;59.03;100721.16;7631730;32;38200;-81
2022/12/17 19:10:56;;;;;;;37.88;17.65;;;;;;;0.14;58.69;100730.25;7630980;32;37223;-80
2022/12/17 19:15:14;;;;;;;39.65;16.00;;;;;;;0.09;58.75;100739.84;7632169;32;39400;-81
2022/12/17 19:19:31;;;;;;;42.08;19.37;;;;;;;0.14;58.69;100746.34;7631370;32;40481;-81
2022/12/17 19:23:48;;;;;;;36.88;18.87;;;;;;;0.14;58.25;100758.94;7630402;32;37684;-81
2022/12/17 19:28:04;;;;;;;46.58;18.52;;;;;;;-0.44;59.68;100777.22;7629812;32;36939;-80
2022/12/17 19:32:22;;;;;;;36.83;15.50;;;;;;;-0.96;60.81;100768.72;7630854;32;38994;-83
2022/12/17 19:36:40;;;;;;;36.63;17.67;;;;;;;-0.54;60.11;100772.06;7630436;32;41253;-81
2022/12/17 19:41:00;;;;;;;31.42;16.35;;;;;;;-0.76;60.27;100765.63;7628898;32;37874;-81
2022/12/17 19:45:17;;;;;;;59.97;22.77;;;;;;;-0.42;60.13;100789.41;7628169;32;37819;-81
2022/12/17 19:49:34;;;;;;;38.03;18.05;;;;;;;0.01;58.55;100793.53;7630909;32;39003;-81
2022/12/17 19:53:50;;;;;;;39.25;17.27;;;;;;;0.01;58.38;100797.03;7631057;32;40001;-81
2022/12/17 19:58:06;;;;;;;36.40;17.12;;;;;;;-0.65;60.12;100809.97;7628663;32;36937;-81
2022/12/17 20:02:22;;;;;;;47.85;22.95;;;;;;;-0.40;59.43;100816.87;7630550;32;38550;-81
2022/12/17 20:06:46;;;;;;;34.50;16.65;;;;;;;-0.62;60.46;100822.97;7630768;32;39291;-81
2022/12/17 20:11:31;;;;;;;32.50;14.55;;;;;;;-0.29;59.20;100823.69;7630949;32;40882;-82
2022/12/17 20:15:40;;;;;;;29.33;13.80;;;;;;;0.03;58.14;100834.41;7621587;32;38094;-77
2022/12/17 20:19:57;;;;;;;29.30;12.85;;;;;;;0.15;68.08;100841.03;7629984;32;37020;-81
2022/12/17 20:24:14;;;;;;;28.50;13.68;;;;;;;0.04;58.21;100850.31;7629975;32;38987;-81
2022/12/17 20:28:30;;;;;;;32.15;14.45;;;;;;;-0.25;58.77;100861.69;7626568;32;38532;-82
2022/12/17 20:32:48;;;;;;;31.55;12.48;;;;;;;-0.49;59.36;100873.34;7635930;32;38288;-82
2022/12/17 20:37:05;;;;;;;26.62;13.50;;;;;;;0.11;57.93;100888.00;7634428;32;37274;-80
2022/12/17 20:41:24;;;;;;;33.67;13.45;;;;;;;0.12;58.08;100897.69;7633343;32;39106;-82
2022/12/17 20:45:50;;;;;;;29.75;13.02;;;;;;;0.22;57.73;100892.94;7629148;32;39858;-82
2022/12/17 20:50:08;;;;;;;30.10;13.70;;;;;;;0.41;56.73;100904.22;7628211;32;38946;-81
2022/12/17 20:54:24;;;;;;;26.00;13.00;;;;;;;0.13;57.43;100912.78;7629379;32;38351;-81
2022/12/17 20:58:41;;;;;;;26.92;13.23;;;;;;;0.20;57.40;100919.09;7629290;32;39245;-81
2022/12/17 21:02:57;;;;;;;33.10;14.90;;;;;;;-0.07;57.92;100929.31;7615298;32;39930;-81
2022/12/17 21:07:14;;;;;;;30.65;15.27;;;;;;;-0.13;58.31;100929.16;7629633;32;38825;-80
2022/12/17 21:11:32;;;;;;;22.55;12.35;;;;;;;-0.69;59.78;100939.84;7629173;32;37248;-81
2022/12/17 21:15:49;;;;;;;30.05;14.70;;;;;;;-0.26;58.21;100938.59;7629271;32;39001;-81
2022/12/17 21:20:05;;;;;;;31.48;13.88;;;;;;;-0.49;59.24;100951.03;7629079;32;40833;-80
2022/12/17 21:24:24;;;;;;;28.55;13.00;;;;;;;-0.31;58.83;100954.34;7629344;32;36505;-82
2022/12/17 21:28:41;;;;;;;31.25;13.75;;;;;;;-0.87;60.28;100964.16;7632052;32;38554;-80
2022/12/17 21:32:58;;;;;;;31.48;13.70;;;;;;;-0.77;60.22;100973.66;7635177;32;39344;-78
2022/12/17 21:37:15;;;;;;;29.25;14.15;;;;;;;-1.10;61.47;100972.00;7632368;32;39684;-79
2022/12/17 21:41:35;;;;;;;50.20;21.95;;;;;;;-0.80;60.13;100975.84;7632698;32;38480;-79
2022/12/17 21:45:56;;;;;;;38.10;18.80;;;;;;;-0.89;60.44;100984.91;7630807;32;36798;-80
2022/12/17 21:50:12;;;;;;;35.05;15.55;;;;;;;-1.11;61.67;100994.41;7630781;32;39098;-79
2022/12/17 21:54:29;;;;;;;33.47;16.10;;;;;;;-0.57;59.19;100997.41;7632296;32;40599;-80
2022/12/17 21:58:46;;;;;;;36.85;17.30;;;;;;;-0.81;59.75;101009.84;7631814;32;38061;-77
2022/12/17 22:03:02;;;;;;;35.50;16.83;;;;;;;-0.36;58.42;101010.31;7632094;32;37291;-79
2022/12/17 22:07:19;;;;;;;48.08;23.23;;;;;;;-0.34;58.64;101023.53;7630735;32;40036;-79
2022/12/17 22:11:40;;;;;;;28.42;14.75;;;;;;;-0.21;58.09;101021.16;7632104;32;40071;-79
2022/12/17 22:15:57;;;;;;;36.40;17.12;;;;;;;-0.12;58.14;101038.03;7618166;32;37600;-79
2022/12/17 22:20:15;;;;;;;38.92;17.62;;;;;;;0.07;57.62;101040.34;7631676;32;37340;-79
2022/12/17 22:24:31;;;;;;;34.30;16.10;;;;;;;-0.27;58.35;101043.28;7632217;32;39619;-79
2022/12/17 22:28:51;;;;;;;40.30;17.50;;;;;;;-0.22;58.73;101044.44;7631844;32;40043;-78
2022/12/17 22:33:08;;;;;;;37.65;17.45;;;;;;;-0.25;58.25;101060.03;7631836;32;38016;-80
2022/12/17 22:37:44;;;;;;;39.60;17.85;;;;;;;-0.50;59.13;101051.16;7630970;32;37422;-80
2022/12/17 22:47:15;;;;;;;38.88;17.30;;;;;;;-0.43;59.39;101060.19;7630154;32;40168;-79
2022/12/17 22:51:31;;;;;;;37.55;18.58;;;;;;;-0.44;59.51;101067.41;7633358;32;37912;-80
2022/12/17 22:56:02;;;;;;;42.08;18.30;;;;;;;-0.31;58.28;101066.06;7639515;32;37512;-79
2022/12/17 23:00:35;;;;;;;43.87;19.05;;;;;;;-0.19;58.40;101075.41;7630448;32;39976;-80
2022/12/17 23:04:51;;;;;;;42.40;18.98;;;;;;;-0.13;58.09;101074.75;7631143;32;40910;-80
2022/12/17 23:09:08;;;;;;;38.72;16.58;;;;;;;-0.31;58.45;101091.03;7631465;32;37873;-80
2022/12/17 23:13:24;;;;;;;43.65;18.37;;;;;;;-0.03;57.80;101091.47;7617916;32;38024;-80
2022/12/17 23:17:40;;;;;;;41.22;19.48;;;;;;;-0.07;57.63;101095.53;7630224;32;39373;-79
2022/12/17 23:21:59;;;;;;;37.80;18.52;;;;;;;-0.33;57.91;101110.94;7632892;32;39676;-79
2022/12/17 23:26:18;;;;;;;37.90;17.95;;;;;;;-0.24;57.74;101116.16;7629950;32;36915;-79
2022/12/17 23:30:36;;;;;;;41.88;17.90;;;;;;;0.28;56.29;101117.56;7633190;32;37167;-80
2022/12/17 23:34:52;;;;;;;37.97;18.40;;;;;;;0.28;56.08;101135.53;7639758;32;39344;-80
2022/12/17 23:39:09;;;;;;;41.65;19.35;;;;;;;-0.08;56.88;101128.69;7632678;32;40605;-79
2022/12/17 23:43:25;;;;;;;40.50;18.90;;;;;;;-0.07;57.18;101138.41;7631026;32;38018;-80
2022/12/17 23:47:41;;;;;;;39.80;18.00;;;;;;;-0.02;56.90;101145.94;7639445;32;37361;-79
2022/12/17 23:51:57;;;;;;;40.20;18.62;;;;;;;0.09;56.53;101152.81;7633622;32;39261;-79
2022/12/17 23:56:16;;;;;;;41.20;18.05;;;;;;;0.19;56.38;101148.13;7630644;32;40166;-80
